createdAt,value
2022-09-23T00:01:22.896Z,7.26
2022-09-23T00:03:50.805Z,7.32
2022-09-23T00:06:22.164Z,7.26
2022-09-23T00:08:50.972Z,7.19
2022-09-23T00:11:21.809Z,7.25
2022-09-23T00:13:53.046Z,7.32
2022-09-23T00:16:34.579Z,7.46
2022-09-23T00:19:04.057Z,7.38
2022-09-23T00:21:31.891Z,7.19
2022-09-23T00:23:59.751Z,7.14
2022-09-23T00:26:27.894Z,7.12
2022-09-23T00:28:55.868Z,7.16
2022-09-23T00:31:27.280Z,7.17
2022-09-23T00:34:00.686Z,7.18
2022-09-23T00:36:30.295Z,7.19
2022-09-23T00:38:58.546Z,7.18
2022-09-23T00:41:27.482Z,7.17
2022-09-23T00:44:00.820Z,7.15
2022-09-23T00:46:37.098Z,7.23
2022-09-23T00:49:25.683Z,7.40
2022-09-23T00:52:01.323Z,7.15
2022-09-23T00:54:29.719Z,6.87
2022-09-23T00:57:00.649Z,6.92
2022-09-23T00:59:29.098Z,6.94
2022-09-23T01:01:58.886Z,6.61
2022-09-23T01:04:28.643Z,6.59
2022-09-23T01:06:56.396Z,6.70
2022-09-23T01:09:25.239Z,6.74
2022-09-23T01:12:07.653Z,6.83
2022-09-23T01:14:48.664Z,7.00
2022-09-23T01:17:40.312Z,6.98
2022-09-23T01:20:59.217Z,6.98
2022-09-23T01:24:09.655Z,6.89
2022-09-23T01:26:57.677Z,6.84
2022-09-23T01:30:02.959Z,6.79
2022-09-23T01:32:57.653Z,6.73
2022-09-23T01:36:19.031Z,6.71
2022-09-23T01:39:31.790Z,6.71
2022-09-23T01:42:36.022Z,6.69
2022-09-23T01:45:44.335Z,6.65
2022-09-23T01:48:45.349Z,6.66
2022-09-23T01:51:19.386Z,6.65
2022-09-23T01:54:09.790Z,6.64
2022-09-23T01:56:51.799Z,6.65
2022-09-23T01:59:31.105Z,6.61
2022-09-23T02:02:08.972Z,6.57
2022-09-23T02:05:19.075Z,6.53
2022-09-23T02:08:07.133Z,6.32
2022-09-23T02:10:42.099Z,6.25
2022-09-23T02:13:20.600Z,6.34
2022-09-23T02:15:55.620Z,6.39
2022-09-23T02:18:37.318Z,6.42
2022-09-23T02:21:09.470Z,6.39
2022-09-23T02:23:50.983Z,6.38
2022-09-23T02:26:23.032Z,6.39
2022-09-23T02:29:21.531Z,6.36
2022-09-23T02:32:00.271Z,6.34
2022-09-23T02:35:06.114Z,6.31
2022-09-23T02:38:04.500Z,6.31
2022-09-23T02:41:14.771Z,6.29
2022-09-23T02:44:13.967Z,6.29
2022-09-23T02:46:45.057Z,6.20
2022-09-23T02:49:20.635Z,6.22
2022-09-23T02:51:48.918Z,6.21
2022-09-23T02:54:22.239Z,6.19
2022-09-23T02:56:50.015Z,5.89
2022-09-23T02:59:19.882Z,5.65
2022-09-23T03:02:05.933Z,5.52
2022-09-23T03:05:14.890Z,5.47
2022-09-23T03:08:15.063Z,5.40
2022-09-23T03:11:06.179Z,5.29
2022-09-23T03:14:17.751Z,5.31
2022-09-23T03:16:55.783Z,5.51
2022-09-23T03:19:50.703Z,5.63
2022-09-23T03:22:51.565Z,5.71
2022-09-23T03:25:24.222Z,5.71
2022-09-23T03:27:57.492Z,5.67
2022-09-23T03:30:26.515Z,5.66
2022-09-23T03:32:57.041Z,5.62
2022-09-23T03:35:27.853Z,5.63
2022-09-23T03:38:11.946Z,5.67
2022-09-23T03:40:47.714Z,5.68
2022-09-23T03:43:16.568Z,5.69
2022-09-23T03:45:46.279Z,5.68
2022-09-23T03:48:17.193Z,5.64
2022-09-23T03:50:44.898Z,5.41
2022-09-23T03:53:13.800Z,5.19
2022-09-23T03:55:41.791Z,5.31
2022-09-23T03:58:09.796Z,5.41
2022-09-23T04:00:38.044Z,5.35
2022-09-23T04:03:11.447Z,5.13
2022-09-23T04:05:39.932Z,5.25
2022-09-23T04:08:08.077Z,5.36
2022-09-23T04:10:36.220Z,5.36
2022-09-23T04:13:04.260Z,5.37
2022-09-23T04:15:32.348Z,5.39
2022-09-23T04:18:00.368Z,5.39
2022-09-23T04:20:30.288Z,5.42
2022-09-23T04:22:58.369Z,5.42
2022-09-23T04:25:26.382Z,5.39
2022-09-23T04:27:54.814Z,5.11
2022-09-23T04:30:22.925Z,4.93
2022-09-23T04:32:53.153Z,5.03
2022-09-23T04:35:21.224Z,5.13
2022-09-23T04:37:49.299Z,5.18
2022-09-23T04:40:17.521Z,5.24
2022-09-23T04:42:45.608Z,5.30
2022-09-23T04:45:14.103Z,5.34
2022-09-23T04:47:42.168Z,5.18
2022-09-23T04:50:10.213Z,5.01
2022-09-23T04:52:38.432Z,4.86
2022-09-23T04:55:11.200Z,4.80
2022-09-23T04:57:39.666Z,4.77
2022-09-23T05:00:09.378Z,4.75
2022-09-23T05:02:46.903Z,4.80
2022-09-23T05:05:21.099Z,4.96
2022-09-23T05:07:50.179Z,4.91
2022-09-23T05:10:18.591Z,4.93
2022-09-23T05:12:46.611Z,4.97
2022-09-23T05:15:16.191Z,5.14
2022-09-23T05:17:44.241Z,5.26
2022-09-23T05:20:13.107Z,5.26
2022-09-23T05:22:41.270Z,5.32
2022-09-23T05:25:09.622Z,5.41
2022-09-23T05:27:38.290Z,5.42
2022-09-23T05:30:07.713Z,5.33
2022-09-23T05:32:35.723Z,5.33
2022-09-23T05:35:04.622Z,5.44
2022-09-23T05:37:33.173Z,5.53
2022-09-23T05:40:01.573Z,5.65
2022-09-23T05:42:29.774Z,5.73
2022-09-23T05:44:57.842Z,5.82
2022-09-23T05:47:25.889Z,5.88
2022-09-23T05:50:00.135Z,5.95
2022-09-23T05:52:28.725Z,6.01
2022-09-23T05:54:56.871Z,6.09
2022-09-23T05:57:25.095Z,6.19
2022-09-23T05:59:53.153Z,6.27
2022-09-23T06:02:21.422Z,6.37
2022-09-23T06:04:49.479Z,6.46
2022-09-23T06:07:17.648Z,6.57
2022-09-23T06:09:45.815Z,6.67
2022-09-23T06:12:14.207Z,6.76
2022-09-23T06:14:42.311Z,6.83
2022-09-23T06:17:10.358Z,6.93
2022-09-23T06:19:38.498Z,7.04
2022-09-23T06:22:06.527Z,7.18
2022-09-23T06:24:34.591Z,7.31
2022-09-23T06:27:03.213Z,7.45
2022-09-23T06:29:32.193Z,7.59
2022-09-23T06:32:00.789Z,7.68
2022-09-23T06:34:29.540Z,7.79
2022-09-23T06:36:59.567Z,7.91
2022-09-23T06:39:30.075Z,8.01
2022-09-23T06:41:58.185Z,8.10
2022-09-23T06:44:28.700Z,8.25
2022-09-23T06:46:57.158Z,8.33
2022-09-23T06:49:25.502Z,8.43
2022-09-23T06:51:56.185Z,8.53
2022-09-23T06:54:24.252Z,8.61
2022-09-23T06:56:52.286Z,8.70
2022-09-23T06:59:20.477Z,8.80
2022-09-23T07:01:50.669Z,8.92
2022-09-23T07:04:18.939Z,9.03
2022-09-23T07:06:47.006Z,9.12
2022-09-23T07:09:15.124Z,9.24
2022-09-23T07:11:43.230Z,9.33
2022-09-23T07:14:11.619Z,9.50
2022-09-23T07:16:40.263Z,9.61
2022-09-23T07:19:08.455Z,9.70
2022-09-23T07:21:37.763Z,9.78
2022-09-23T07:24:06.319Z,9.86
2022-09-23T07:26:34.660Z,9.92
2022-09-23T07:29:05.155Z,10.00
2022-09-23T07:31:39.552Z,10.03
2022-09-23T07:34:11.686Z,10.07
2022-09-23T07:36:43.365Z,10.15
2022-09-23T07:39:13.340Z,10.34
2022-09-23T07:41:44.586Z,10.52
2022-09-23T07:44:12.914Z,10.57
2022-09-23T07:46:41.343Z,10.59
2022-09-23T07:49:10.738Z,10.61
2022-09-23T07:51:41.085Z,10.67
2022-09-23T07:54:14.233Z,10.88
2022-09-23T07:56:43.683Z,11.05
2022-09-23T07:59:17.691Z,11.24
2022-09-23T08:01:50.477Z,11.31
2022-09-23T08:04:24.704Z,11.26
2022-09-23T08:06:57.670Z,11.25
2022-09-23T08:09:28.738Z,11.34
2022-09-23T08:11:56.779Z,11.43
2022-09-23T08:14:25.034Z,11.54
2022-09-23T08:16:54.164Z,11.67
2022-09-23T08:19:22.238Z,11.74
2022-09-23T08:21:52.147Z,11.83
2022-09-23T08:24:24.133Z,11.89
2022-09-23T08:26:54.756Z,11.92
2022-09-23T08:29:25.382Z,12.05
2022-09-23T08:31:54.168Z,12.16
2022-09-23T08:34:23.811Z,12.26
2022-09-23T08:36:52.454Z,12.33
2022-09-23T08:39:22.785Z,12.39
2022-09-23T08:41:59.067Z,12.56
2022-09-23T08:44:43.696Z,12.72
2022-09-23T08:47:51.664Z,12.85
2022-09-23T08:50:42.436Z,13.06
2022-09-23T08:53:38.070Z,13.20
2022-09-23T08:56:17.335Z,13.22
2022-09-23T08:59:04.353Z,13.17
2022-09-23T09:01:48.864Z,13.22
2022-09-23T09:04:27.383Z,13.31
2022-09-23T09:10:24.172Z,13.57
2022-09-23T09:13:11.128Z,13.58
2022-09-23T09:16:12.510Z,13.61
2022-09-23T09:18:54.810Z,13.72
2022-09-23T09:21:37.559Z,13.79
2022-09-23T09:24:21.948Z,13.82
2022-09-23T09:26:50.523Z,13.88
2022-09-23T09:29:35.863Z,13.99
2022-09-23T09:32:33.771Z,14.17
2022-09-23T09:35:18.738Z,14.29
2022-09-23T09:37:48.374Z,14.29
2022-09-23T09:40:17.301Z,14.42
2022-09-23T09:42:49.989Z,14.60
2022-09-23T09:45:30.123Z,14.59
2022-09-23T09:48:17.682Z,14.55
2022-09-23T09:50:52.464Z,14.76
2022-09-23T09:53:24.118Z,14.90
2022-09-23T09:56:05.064Z,15.03
2022-09-23T09:58:53.376Z,15.21
2022-09-23T10:01:34.066Z,15.33
2022-09-23T10:04:19.400Z,15.27
2022-09-23T10:07:15.499Z,15.16
2022-09-23T10:09:51.213Z,15.48
2022-09-23T10:12:23.902Z,15.66
2022-09-23T10:14:57.465Z,15.68
2022-09-23T10:17:34.253Z,15.52
2022-09-23T10:20:14.639Z,15.43
2022-09-23T10:22:43.216Z,15.37
2022-09-23T10:25:26.740Z,15.30
2022-09-23T10:27:54.854Z,15.22
2022-09-23T10:30:28.020Z,15.20
2022-09-23T10:32:57.003Z,15.18
2022-09-23T10:35:26.565Z,15.16
2022-09-23T10:38:00.314Z,15.55
2022-09-23T10:41:03.345Z,15.98
2022-09-23T10:44:15.141Z,16.28
2022-09-23T10:47:20.766Z,16.51
2022-09-23T10:50:29.205Z,16.63
2022-09-23T10:53:10.291Z,16.32
2022-09-23T10:56:02.571Z,15.94
2022-09-23T10:58:52.141Z,15.61
2022-09-23T11:01:41.775Z,15.59
2022-09-23T11:05:04.828Z,15.58
2022-09-23T11:08:05.567Z,16.20
2022-09-23T11:10:48.629Z,16.41
2022-09-23T11:13:41.940Z,16.12
2022-09-23T11:16:55.549Z,15.73
2022-09-23T11:19:26.534Z,15.50
2022-09-23T11:22:20.846Z,15.39
2022-09-23T11:24:58.523Z,15.30
2022-09-23T11:28:18.056Z,15.16
2022-09-23T11:31:14.677Z,15.00
2022-09-23T11:34:16.050Z,14.86
2022-09-23T11:36:57.011Z,14.78
2022-09-23T11:39:40.551Z,14.68
2022-09-23T11:42:25.190Z,14.50
2022-09-23T11:45:15.021Z,14.42
2022-09-23T11:47:52.096Z,14.72
2022-09-23T11:51:01.165Z,14.63
2022-09-23T11:53:39.880Z,14.42
2022-09-23T11:56:35.340Z,14.54
2022-09-23T11:59:37.095Z,14.54
2022-09-23T12:02:33.623Z,14.34
2022-09-23T12:05:10.726Z,14.55
2022-09-23T12:07:57.800Z,14.80
2022-09-23T12:10:38.445Z,14.67
2022-09-23T12:13:20.207Z,14.54
2022-09-23T12:16:02.464Z,14.63
2022-09-23T12:18:43.014Z,14.79
2022-09-23T12:21:39.111Z,14.89
2022-09-23T12:24:27.995Z,14.94
2022-09-23T12:27:05.631Z,14.96
2022-09-23T12:29:37.004Z,15.01
2022-09-23T12:32:09.939Z,15.27
2022-09-23T12:34:49.127Z,15.97
2022-09-23T12:37:44.197Z,16.54
2022-09-23T12:40:45.306Z,16.30
2022-09-23T12:43:33.248Z,16.10
2022-09-23T12:46:26.165Z,16.06
2022-09-23T12:48:57.856Z,16.55
2022-09-23T12:51:35.000Z,17.11
2022-09-23T12:54:21.318Z,17.45
2022-09-23T12:56:55.904Z,17.69
2022-09-23T12:59:28.353Z,18.02
2022-09-23T13:01:57.658Z,17.51
2022-09-23T13:05:00.090Z,17.01
2022-09-23T13:07:34.131Z,16.71
2022-09-23T13:10:18.287Z,16.63
2022-09-23T13:12:47.314Z,16.57
2022-09-23T13:15:35.784Z,16.34
2022-09-23T13:18:44.706Z,16.16
2022-09-23T13:21:39.323Z,16.03
2022-09-23T13:24:13.633Z,15.97
2022-09-23T13:27:00.346Z,16.03
2022-09-23T13:29:47.721Z,16.14
2022-09-23T13:32:18.655Z,16.09
2022-09-23T13:35:14.326Z,16.16
2022-09-23T13:37:49.909Z,16.13
2022-09-23T13:40:28.411Z,16.10
2022-09-23T13:43:20.236Z,16.11
2022-09-23T13:45:50.129Z,16.16
2022-09-23T13:48:20.877Z,16.15
2022-09-23T13:50:53.312Z,16.12
2022-09-23T13:53:31.894Z,16.08
2022-09-23T13:56:13.522Z,15.96
2022-09-23T13:58:43.476Z,16.03
2022-09-23T14:01:34.756Z,16.28
2022-09-23T14:04:03.007Z,16.58
2022-09-23T14:06:32.161Z,16.73
2022-09-23T14:09:02.066Z,16.49
2022-09-23T14:11:35.178Z,16.45
2022-09-23T14:14:07.932Z,16.67
2022-09-23T14:16:40.598Z,16.61
2022-09-23T14:19:20.029Z,16.40
2022-09-23T14:21:54.632Z,16.16
2022-09-23T14:24:31.613Z,15.94
2022-09-23T14:27:06.820Z,15.75
2022-09-23T14:29:44.262Z,15.58
2022-09-23T14:32:21.254Z,15.48
2022-09-23T14:35:05.188Z,15.40
2022-09-23T14:37:57.119Z,15.33
2022-09-23T14:40:35.986Z,15.20
2022-09-23T14:43:08.760Z,15.04
2022-09-23T14:45:40.038Z,15.09
2022-09-23T14:48:16.405Z,15.05
2022-09-23T14:51:10.798Z,14.94
2022-09-23T14:53:46.354Z,14.91
2022-09-23T14:56:22.841Z,14.97
2022-09-23T14:58:54.663Z,14.97
2022-09-23T15:01:35.154Z,14.95
2022-09-23T15:04:21.303Z,14.97
2022-09-23T15:06:57.765Z,15.08
2022-09-23T15:09:32.511Z,15.09
2022-09-23T15:12:22.049Z,15.20
2022-09-23T15:14:54.304Z,15.26
2022-09-23T15:17:35.059Z,15.31
2022-09-23T15:20:08.895Z,15.32
2022-09-23T15:22:46.092Z,15.37
2022-09-23T15:25:25.675Z,15.34
2022-09-23T15:28:04.362Z,15.32
2022-09-23T15:30:36.653Z,15.24
2022-09-23T15:33:06.538Z,15.24
2022-09-23T15:35:36.357Z,15.33
2022-09-23T15:38:04.557Z,15.30
2022-09-23T15:40:36.415Z,15.20
2022-09-23T15:43:21.910Z,15.13
2022-09-23T15:45:54.132Z,15.11
2022-09-23T15:48:32.533Z,15.17
2022-09-23T15:51:06.939Z,15.14
2022-09-23T15:53:36.448Z,15.15
2022-09-23T15:56:06.265Z,15.11
2022-09-23T15:58:34.487Z,15.09
2022-09-23T16:01:03.852Z,15.12
2022-09-23T16:03:32.056Z,15.11
2022-09-23T16:06:03.278Z,15.12
2022-09-23T16:08:33.035Z,15.07
2022-09-23T16:11:01.443Z,14.98
2022-09-23T16:13:29.691Z,14.94
2022-09-23T16:15:57.818Z,14.86
2022-09-23T16:18:26.044Z,14.69
2022-09-23T16:20:54.780Z,14.53
2022-09-23T16:23:35.528Z,14.44
2022-09-23T16:26:04.888Z,14.38
2022-09-23T16:28:33.093Z,14.27
2022-09-23T16:31:01.230Z,14.14
2022-09-23T16:33:29.302Z,14.05
2022-09-23T16:36:00.814Z,13.91
2022-09-23T16:38:29.662Z,13.81
2022-09-23T16:41:00.236Z,13.69
2022-09-23T16:43:31.758Z,13.59
2022-09-23T16:45:59.946Z,13.47
2022-09-23T16:48:28.135Z,13.36
2022-09-23T16:50:56.251Z,13.29
2022-09-23T16:53:26.515Z,13.19
2022-09-23T16:55:57.841Z,13.05
2022-09-23T16:58:26.125Z,12.96
2022-09-23T17:01:16.961Z,12.91
2022-09-23T17:03:45.266Z,12.75
2022-09-23T17:06:15.285Z,12.65
2022-09-23T17:08:48.131Z,12.63
2022-09-23T17:11:17.041Z,12.58
2022-09-23T17:13:45.645Z,12.48
2022-09-23T17:16:35.004Z,12.47
2022-09-23T17:19:08.756Z,12.41
2022-09-23T17:21:37.461Z,12.35
2022-09-23T17:24:06.448Z,12.19
2022-09-23T17:26:35.065Z,12.15
2022-09-23T17:29:03.595Z,12.18
2022-09-23T17:31:31.891Z,12.15
2022-09-23T17:34:00.807Z,12.10
2022-09-23T17:36:30.205Z,12.04
2022-09-23T17:38:58.319Z,11.97
2022-09-23T17:41:28.230Z,11.96
2022-09-23T17:43:58.482Z,11.99
2022-09-23T17:46:30.194Z,12.00
2022-09-23T17:48:58.431Z,12.01
2022-09-23T17:51:26.640Z,12.02
2022-09-23T17:53:55.903Z,12.03
2022-09-23T17:56:26.859Z,12.07
2022-09-23T17:58:55.218Z,12.05
2022-09-23T18:01:26.256Z,11.98
2022-09-23T18:04:00.427Z,11.92
2022-09-23T18:06:31.835Z,11.85
2022-09-23T18:09:04.405Z,11.79
2022-09-23T18:11:36.460Z,11.78
2022-09-23T18:14:17.053Z,11.79
2022-09-23T18:16:51.941Z,11.79
2022-09-23T18:19:22.735Z,11.79
2022-09-23T18:21:56.074Z,11.80
2022-09-23T18:24:32.442Z,11.75
2022-09-23T18:27:02.011Z,11.76
2022-09-23T18:29:30.142Z,11.76
2022-09-23T18:31:59.475Z,11.67
2022-09-23T18:34:29.192Z,11.63
2022-09-23T18:36:57.447Z,11.58
2022-09-23T18:39:25.903Z,11.52
2022-09-23T18:41:54.933Z,11.54
2022-09-23T18:44:23.511Z,11.55
2022-09-23T18:46:51.645Z,11.57
2022-09-23T18:49:38.352Z,11.56
2022-09-23T18:52:06.524Z,11.56
2022-09-23T18:54:34.624Z,11.60
2022-09-23T18:57:02.799Z,11.63
2022-09-23T18:59:33.472Z,11.55
2022-09-23T19:02:01.875Z,11.50
2022-09-23T19:04:30.253Z,11.63
2022-09-23T19:06:58.896Z,11.76
2022-09-23T19:09:27.045Z,11.85
2022-09-23T19:11:56.467Z,11.84
2022-09-23T19:14:24.679Z,11.83
2022-09-23T19:16:52.808Z,11.76
2022-09-23T19:19:21.118Z,11.76
2022-09-23T19:21:49.181Z,11.70
2022-09-23T19:24:20.037Z,11.72
2022-09-23T19:26:48.825Z,11.69
2022-09-23T19:29:22.025Z,11.70
2022-09-23T19:31:51.234Z,11.85
2022-09-23T19:34:25.090Z,11.97
2022-09-23T19:36:57.433Z,12.01
2022-09-23T19:39:28.510Z,11.97
2022-09-23T19:41:56.693Z,11.87
2022-09-23T19:44:28.206Z,11.82
2022-09-23T19:46:57.432Z,11.78
2022-09-23T19:49:25.996Z,11.69
2022-09-23T19:51:55.953Z,11.57
2022-09-23T19:54:27.348Z,11.51
2022-09-23T19:56:55.860Z,11.45
2022-09-23T19:59:26.459Z,11.46
2022-09-23T20:01:55.071Z,11.59
2022-09-23T20:04:23.769Z,11.70
2022-09-23T20:06:52.145Z,11.81
2022-09-23T20:09:20.752Z,11.82
2022-09-23T20:11:49.635Z,11.77
2022-09-23T20:14:19.475Z,11.60
2022-09-23T20:16:47.581Z,11.51
2022-09-23T20:19:16.103Z,11.47
2022-09-23T20:21:44.228Z,11.37
2022-09-23T20:24:13.100Z,11.30
2022-09-23T20:26:59.939Z,11.26
2022-09-23T20:29:28.084Z,11.33
2022-09-23T20:31:58.606Z,11.42
2022-09-23T20:34:29.762Z,11.44
2022-09-23T20:36:59.265Z,11.31
2022-09-23T20:39:28.288Z,11.15
2022-09-23T20:41:56.492Z,11.14
2022-09-23T20:44:25.096Z,11.16
2022-09-23T20:46:53.199Z,11.01
2022-09-23T20:49:21.327Z,10.86
2022-09-23T20:51:50.350Z,10.98
2022-09-23T20:54:21.609Z,10.92
2022-09-23T20:56:49.696Z,10.85
2022-09-23T20:59:19.098Z,10.91
2022-09-23T21:01:47.826Z,11.00
2022-09-23T21:04:16.537Z,11.02
2022-09-23T21:06:44.682Z,10.96
2022-09-23T21:09:12.748Z,10.75
2022-09-23T21:11:41.059Z,10.71
2022-09-23T21:14:09.497Z,10.70
2022-09-23T21:16:37.642Z,10.66
2022-09-23T21:19:08.079Z,10.66
2022-09-23T21:21:36.394Z,10.63
2022-09-23T21:24:33.631Z,10.63
2022-09-23T21:26:52.945Z,10.66
2022-09-23T21:29:21.251Z,10.68
2022-09-23T21:31:49.662Z,10.72
2022-09-23T21:34:19.340Z,10.73
2022-09-23T21:36:48.115Z,10.70
2022-09-23T21:39:16.371Z,10.70
2022-09-23T21:41:44.365Z,10.79
2022-09-23T21:44:12.567Z,10.90
2022-09-23T21:46:40.650Z,10.84
2022-09-23T21:49:09.107Z,10.79
2022-09-23T21:51:41.147Z,10.77
2022-09-23T21:54:16.857Z,10.73
2022-09-23T21:56:45.343Z,10.74
2022-09-23T21:59:13.374Z,10.68
2022-09-23T22:01:48.361Z,10.68
2022-09-23T22:04:20.789Z,10.71
2022-09-23T22:06:49.116Z,10.66
2022-09-23T22:09:20.556Z,10.64
2022-09-23T22:12:12.724Z,10.64
2022-09-23T22:14:41.053Z,10.62
2022-09-23T22:17:12.262Z,10.68
2022-09-23T22:19:45.954Z,10.67
2022-09-23T22:22:18.029Z,10.69
2022-09-23T22:24:48.107Z,10.94
2022-09-23T22:27:19.215Z,10.98
2022-09-23T22:30:06.937Z,10.80
2022-09-23T22:32:41.287Z,10.75
2022-09-23T22:35:19.302Z,10.82
2022-09-23T22:37:48.708Z,10.92
2022-09-23T22:40:17.065Z,10.79
2022-09-23T22:42:45.748Z,10.76
2022-09-23T22:45:13.970Z,10.80
2022-09-23T22:47:45.352Z,10.87
2022-09-23T22:50:15.481Z,10.81
2022-09-23T22:52:44.803Z,10.70
2022-09-23T22:55:13.166Z,10.72
2022-09-23T22:57:41.356Z,10.66
2022-09-23T23:00:12.600Z,10.61
2022-09-23T23:02:41.881Z,10.64
2022-09-23T23:05:10.471Z,10.82
2022-09-23T23:07:38.614Z,11.02
2022-09-23T23:10:10.080Z,11.07
2022-09-23T23:12:40.119Z,11.01
2022-09-23T23:15:12.473Z,10.97
2022-09-23T23:17:43.245Z,10.94
2022-09-23T23:20:11.383Z,10.95
2022-09-23T23:22:39.524Z,10.88
2022-09-23T23:25:09.798Z,10.77
2022-09-23T23:27:38.027Z,10.79
2022-09-23T23:30:08.323Z,10.79
2022-09-23T23:32:36.394Z,10.95
2022-09-23T23:35:05.619Z,10.99
2022-09-23T23:37:34.106Z,10.82
2022-09-23T23:40:03.972Z,10.62
2022-09-23T23:42:32.877Z,10.70
2022-09-23T23:45:01.375Z,10.76
2022-09-23T23:47:29.477Z,10.73
2022-09-23T23:49:57.663Z,10.80
2022-09-23T23:52:25.815Z,10.87
2022-09-23T23:54:54.052Z,10.88
2022-09-23T23:57:22.072Z,10.90
2022-09-23T23:59:50.141Z,10.88
